METAR és
SPECI
METAR LHBP 291000Z 29012KT 260V360 CAVOK 12/M02 Q1011 NOSIG=
METAR LHBP 290930Z 33008KT 260V010 CAVOK 13/M02 Q1011 NOSIG=
METAR LHBP 290900Z 30006KT 250V340 CAVOK 11/M02 Q1011 NOSIG=
METAR LHBP 290830Z 31008KT 280V350 CAVOK 10/M03 Q1012 NOSIG=
METAR LHBP 290800Z 32008KT CAVOK 10/M01 Q1012 NOSIG=
METAR LHBP 290730Z 31008KT CAVOK 08/00 Q1012 NOSIG=
TAF
TAF LHBP 290500Z 2906/3006 30006KT CAVOK BECMG 2909/2911 27009KT BECMG 2915/2917 21006KT SCT035 BKN060 BECMG 2921/2923 BKN030 TEMPO 2923/3006 VRB03KT -RA BKN025=
GAMET
FAHU41 LHBM 290500
LHCC GAMET VALID 290600/291200 LHBP-
BUDAPEST FIR BLW FL100
SECN 1
HAZARDOUS WX NIL=
OMSZ: 2015. március 29. 06:26 (04:26  UTC)
[FAHU41]
AIRMET
Nincs érvényes távirat! 
WAHU41 LHBM 151445
LHCC AIRMET 01 VALID 151445/151800 LHBP-
LHCC BUDAPEST FIR ISOL TCU 2500-3500/XXX FT OBS SE OF LINE
N4614 E01658 - N4801 E01849 MOV NW WKN=
SIGMET
Nincs érvényes távirat! 
WSHU31 LHBM 272110
LHCC SIGMET 02 VALID 272110/280110 LHBP-
LHCC BUDAPEST FIR SEV TURB FCST W OF E01850 5000FT/FL100
STNR WKN=
SIGMET
Vulkáni hamufelhő
Nincs érvényes távirat! 
WVHU31 LHBM 271515 CCA
LHCC SIGMET 03 VALID 271515/271800 LHBP-
LHCC BUDAPEST FIR EXERCISE VOLCEX12/01
CNL VA SIGMET 02 271200/271800
EXERCISE EXERCISE EXERCISE VOLCEX12/01=